sensor_id;sensor_type;location;lat;lon;timestamp;P1;durP1;ratioP1;P2;durP2;ratioP2
20649;SDS011;10484;48.736;9.332;2023-02-28T00:00:16;4.18;;;1.70;;
20649;SDS011;10484;48.736;9.332;2023-02-28T00:02:43;3.05;;;1.55;;
20649;SDS011;10484;48.736;9.332;2023-02-28T00:05:10;3.92;;;1.60;;
20649;SDS011;10484;48.736;9.332;2023-02-28T00:07:36;1.35;;;1.25;;
20649;SDS011;10484;48.736;9.332;2023-02-28T00:10:03;2.10;;;1.70;;
20649;SDS011;10484;48.736;9.332;2023-02-28T00:12:31;5.63;;;2.00;;
20649;SDS011;10484;48.736;9.332;2023-02-28T00:14:57;2.22;;;1.80;;
20649;SDS011;10484;48.736;9.332;2023-02-28T00:17:22;2.67;;;1.53;;
20649;SDS011;10484;48.736;9.332;2023-02-28T00:19:48;3.73;;;1.57;;
20649;SDS011;10484;48.736;9.332;2023-02-28T00:22:16;3.70;;;1.80;;
20649;SDS011;10484;48.736;9.332;2023-02-28T00:24:42;2.72;;;2.10;;
20649;SDS011;10484;48.736;9.332;2023-02-28T00:27:08;2.00;;;1.77;;
20649;SDS011;10484;48.736;9.332;2023-02-28T00:29:34;3.17;;;1.83;;
20649;SDS011;10484;48.736;9.332;2023-02-28T00:31:59;2.40;;;1.50;;
20649;SDS011;10484;48.736;9.332;2023-02-28T00:34:25;3.17;;;1.73;;
20649;SDS011;10484;48.736;9.332;2023-02-28T00:36:51;3.33;;;1.60;;
20649;SDS011;10484;48.736;9.332;2023-02-28T00:39:17;2.20;;;1.40;;
20649;SDS011;10484;48.736;9.332;2023-02-28T00:41:42;5.27;;;1.90;;
20649;SDS011;10484;48.736;9.332;2023-02-28T00:44:08;7.73;;;1.90;;
20649;SDS011;10484;48.736;9.332;2023-02-28T00:46:34;2.00;;;1.43;;
20649;SDS011;10484;48.736;9.332;2023-02-28T00:48:59;2.40;;;1.27;;
20649;SDS011;10484;48.736;9.332;2023-02-28T00:51:25;2.43;;;1.40;;
20649;SDS011;10484;48.736;9.332;2023-02-28T00:53:50;2.80;;;1.40;;
20649;SDS011;10484;48.736;9.332;2023-02-28T00:56:16;2.93;;;2.07;;
20649;SDS011;10484;48.736;9.332;2023-02-28T00:58:42;2.20;;;1.80;;
20649;SDS011;10484;48.736;9.332;2023-02-28T01:01:07;2.33;;;1.50;;
20649;SDS011;10484;48.736;9.332;2023-02-28T01:03:33;2.13;;;1.40;;
20649;SDS011;10484;48.736;9.332;2023-02-28T01:05:58;2.50;;;1.63;;
20649;SDS011;10484;48.736;9.332;2023-02-28T01:08:24;1.80;;;1.57;;
20649;SDS011;10484;48.736;9.332;2023-02-28T01:10:50;1.83;;;1.67;;
20649;SDS011;10484;48.736;9.332;2023-02-28T01:13:17;2.30;;;1.70;;
20649;SDS011;10484;48.736;9.332;2023-02-28T01:15:48;2.28;;;1.58;;
20649;SDS011;10484;48.736;9.332;2023-02-28T01:18:16;6.40;;;2.35;;
20649;SDS011;10484;48.736;9.332;2023-02-28T01:20:42;3.15;;;1.50;;
20649;SDS011;10484;48.736;9.332;2023-02-28T01:23:08;3.37;;;2.13;;
20649;SDS011;10484;48.736;9.332;2023-02-28T01:25:34;2.30;;;1.50;;
20649;SDS011;10484;48.736;9.332;2023-02-28T01:28:01;2.67;;;1.40;;
20649;SDS011;10484;48.736;9.332;2023-02-28T01:30:26;3.53;;;2.17;;
20649;SDS011;10484;48.736;9.332;2023-02-28T01:32:52;2.30;;;1.67;;
20649;SDS011;10484;48.736;9.332;2023-02-28T01:35:18;2.10;;;1.80;;
20649;SDS011;10484;48.736;9.332;2023-02-28T01:37:44;2.07;;;1.57;;
20649;SDS011;10484;48.736;9.332;2023-02-28T01:40:10;4.17;;;2.10;;
20649;SDS011;10484;48.736;9.332;2023-02-28T01:42:36;2.83;;;1.95;;
20649;SDS011;10484;48.736;9.332;2023-02-28T01:47:49;2.00;;;1.58;;
20649;SDS011;10484;48.736;9.332;2023-02-28T01:50:18;2.30;;;2.03;;
20649;SDS011;10484;48.736;9.332;2023-02-28T01:52:45;3.30;;;2.35;;
20649;SDS011;10484;48.736;9.332;2023-02-28T01:55:13;3.03;;;1.98;;
20649;SDS011;10484;48.736;9.332;2023-02-28T01:57:42;3.80;;;2.50;;
20649;SDS011;10484;48.736;9.332;2023-02-28T02:00:18;3.03;;;1.88;;
20649;SDS011;10484;48.736;9.332;2023-02-28T02:02:49;2.85;;;2.20;;
20649;SDS011;10484;48.736;9.332;2023-02-28T02:05:22;4.05;;;2.75;;
20649;SDS011;10484;48.736;9.332;2023-02-28T02:07:56;7.97;;;2.38;;
20649;SDS011;10484;48.736;9.332;2023-02-28T02:10:31;3.03;;;1.70;;
20649;SDS011;10484;48.736;9.332;2023-02-28T02:37:56;4.00;;;2.55;;
20649;SDS011;10484;48.736;9.332;2023-02-28T02:43:25;3.92;;;2.03;;
20649;SDS011;10484;48.736;9.332;2023-02-28T02:46:05;2.75;;;2.22;;
20649;SDS011;10484;48.736;9.332;2023-02-28T02:48:36;3.10;;;2.25;;
20649;SDS011;10484;48.736;9.332;2023-02-28T02:51:06;2.95;;;2.33;;
20649;SDS011;10484;48.736;9.332;2023-02-28T02:53:50;4.10;;;2.35;;
20649;SDS011;10484;48.736;9.332;2023-02-28T02:56:53;2.75;;;1.90;;
20649;SDS011;10484;48.736;9.332;2023-02-28T02:59:24;5.35;;;2.40;;
20649;SDS011;10484;48.736;9.332;2023-02-28T03:01:53;2.80;;;2.33;;
20649;SDS011;10484;48.736;9.332;2023-02-28T03:04:23;4.78;;;2.63;;
20649;SDS011;10484;48.736;9.332;2023-02-28T03:06:52;3.08;;;2.35;;
20649;SDS011;10484;48.736;9.332;2023-02-28T03:09:22;4.25;;;2.53;;
20649;SDS011;10484;48.736;9.332;2023-02-28T03:11:48;2.60;;;2.20;;
20649;SDS011;10484;48.736;9.332;2023-02-28T03:25:27;4.32;;;2.70;;
20649;SDS011;10484;48.736;9.332;2023-02-28T03:30:51;3.83;;;2.88;;
20649;SDS011;10484;48.736;9.332;2023-02-28T03:33:26;3.83;;;2.55;;
20649;SDS011;10484;48.736;9.332;2023-02-28T03:36:10;4.32;;;2.72;;
20649;SDS011;10484;48.736;9.332;2023-02-28T03:41:17;3.38;;;2.50;;
20649;SDS011;10484;48.736;9.332;2023-02-28T03:43:53;2.95;;;2.35;;
20649;SDS011;10484;48.736;9.332;2023-02-28T03:46:27;3.92;;;2.63;;
20649;SDS011;10484;48.736;9.332;2023-02-28T03:48:58;5.80;;;2.97;;
20649;SDS011;10484;48.736;9.332;2023-02-28T03:51:28;4.18;;;2.40;;
20649;SDS011;10484;48.736;9.332;2023-02-28T03:53:57;4.47;;;2.80;;
20649;SDS011;10484;48.736;9.332;2023-02-28T03:56:29;5.70;;;3.85;;
20649;SDS011;10484;48.736;9.332;2023-02-28T03:59:07;4.55;;;2.67;;
20649;SDS011;10484;48.736;9.332;2023-02-28T04:01:47;4.40;;;2.90;;
20649;SDS011;10484;48.736;9.332;2023-02-28T04:04:13;3.45;;;3.15;;
20649;SDS011;10484;48.736;9.332;2023-02-28T04:06:40;3.58;;;2.67;;
20649;SDS011;10484;48.736;9.332;2023-02-28T04:09:07;5.63;;;3.60;;
20649;SDS011;10484;48.736;9.332;2023-02-28T04:11:41;6.38;;;2.90;;
20649;SDS011;10484;48.736;9.332;2023-02-28T04:14:10;4.15;;;2.58;;
20649;SDS011;10484;48.736;9.332;2023-02-28T04:16:37;3.38;;;2.40;;
20649;SDS011;10484;48.736;9.332;2023-02-28T04:19:06;3.90;;;3.13;;
20649;SDS011;10484;48.736;9.332;2023-02-28T04:21:36;5.70;;;2.28;;
20649;SDS011;10484;48.736;9.332;2023-02-28T04:24:07;3.05;;;2.47;;
20649;SDS011;10484;48.736;9.332;2023-02-28T04:26:38;3.50;;;2.67;;
20649;SDS011;10484;48.736;9.332;2023-02-28T04:29:05;4.20;;;2.83;;
20649;SDS011;10484;48.736;9.332;2023-02-28T04:31:32;4.97;;;3.10;;
20649;SDS011;10484;48.736;9.332;2023-02-28T04:33:58;5.10;;;3.15;;
20649;SDS011;10484;48.736;9.332;2023-02-28T04:36:23;5.03;;;3.50;;
20649;SDS011;10484;48.736;9.332;2023-02-28T04:38:49;3.40;;;3.10;;
20649;SDS011;10484;48.736;9.332;2023-02-28T04:41:15;3.27;;;2.93;;
20649;SDS011;10484;48.736;9.332;2023-02-28T04:43:41;4.93;;;2.97;;
20649;SDS011;10484;48.736;9.332;2023-02-28T04:46:07;5.83;;;3.67;;
20649;SDS011;10484;48.736;9.332;2023-02-28T04:48:35;5.30;;;3.47;;
20649;SDS011;10484;48.736;9.332;2023-02-28T04:51:02;4.00;;;3.60;;
20649;SDS011;10484;48.736;9.332;2023-02-28T04:53:30;6.85;;;3.30;;
20649;SDS011;10484;48.736;9.332;2023-02-28T04:55:56;4.10;;;2.95;;
20649;SDS011;10484;48.736;9.332;2023-02-28T04:58:22;1.90;;;1.65;;
20649;SDS011;10484;48.736;9.332;2023-02-28T05:00:51;5.93;;;2.87;;
20649;SDS011;10484;48.736;9.332;2023-02-28T05:03:18;3.83;;;2.88;;
20649;SDS011;10484;48.736;9.332;2023-02-28T05:05:45;6.15;;;4.13;;
20649;SDS011;10484;48.736;9.332;2023-02-28T05:08:11;5.43;;;2.90;;
20649;SDS011;10484;48.736;9.332;2023-02-28T05:10:37;6.57;;;3.93;;
20649;SDS011;10484;48.736;9.332;2023-02-28T05:13:02;5.30;;;3.10;;
20649;SDS011;10484;48.736;9.332;2023-02-28T05:15:28;4.70;;;3.60;;
20649;SDS011;10484;48.736;9.332;2023-02-28T05:17:54;4.20;;;3.20;;
20649;SDS011;10484;48.736;9.332;2023-02-28T05:20:19;5.17;;;3.70;;
20649;SDS011;10484;48.736;9.332;2023-02-28T05:22:46;3.63;;;2.33;;
20649;SDS011;10484;48.736;9.332;2023-02-28T05:25:12;6.03;;;3.53;;
20649;SDS011;10484;48.736;9.332;2023-02-28T05:27:41;7.18;;;3.58;;
20649;SDS011;10484;48.736;9.332;2023-02-28T05:30:06;4.87;;;3.20;;
20649;SDS011;10484;48.736;9.332;2023-02-28T05:32:35;4.43;;;3.50;;
20649;SDS011;10484;48.736;9.332;2023-02-28T05:35:08;5.28;;;3.33;;
20649;SDS011;10484;48.736;9.332;2023-02-28T05:37:35;4.13;;;3.65;;
20649;SDS011;10484;48.736;9.332;2023-02-28T05:40:02;5.22;;;3.60;;
20649;SDS011;10484;48.736;9.332;2023-02-28T05:42:31;5.70;;;3.03;;
20649;SDS011;10484;48.736;9.332;2023-02-28T05:44:57;6.82;;;4.35;;
20649;SDS011;10484;48.736;9.332;2023-02-28T05:47:23;8.68;;;4.10;;
20649;SDS011;10484;48.736;9.332;2023-02-28T05:49:49;5.80;;;4.00;;
20649;SDS011;10484;48.736;9.332;2023-02-28T05:52:15;4.87;;;3.90;;
20649;SDS011;10484;48.736;9.332;2023-02-28T05:54:40;5.80;;;2.93;;
20649;SDS011;10484;48.736;9.332;2023-02-28T05:57:06;6.20;;;3.53;;
20649;SDS011;10484;48.736;9.332;2023-02-28T05:59:32;4.63;;;3.50;;
20649;SDS011;10484;48.736;9.332;2023-02-28T06:01:57;7.83;;;4.50;;
20649;SDS011;10484;48.736;9.332;2023-02-28T06:04:23;4.43;;;3.57;;
20649;SDS011;10484;48.736;9.332;2023-02-28T06:06:49;6.60;;;4.23;;
20649;SDS011;10484;48.736;9.332;2023-02-28T06:09:16;8.68;;;4.78;;
20649;SDS011;10484;48.736;9.332;2023-02-28T06:11:42;9.23;;;4.60;;
20649;SDS011;10484;48.736;9.332;2023-02-28T06:14:10;5.13;;;3.53;;
20649;SDS011;10484;48.736;9.332;2023-02-28T06:16:41;5.97;;;4.35;;
20649;SDS011;10484;48.736;9.332;2023-02-28T06:19:08;7.70;;;3.90;;
20649;SDS011;10484;48.736;9.332;2023-02-28T06:21:34;5.43;;;4.53;;
20649;SDS011;10484;48.736;9.332;2023-02-28T06:23:59;4.90;;;4.20;;
20649;SDS011;10484;48.736;9.332;2023-02-28T06:26:25;5.27;;;4.00;;
20649;SDS011;10484;48.736;9.332;2023-02-28T06:28:51;5.90;;;4.70;;
20649;SDS011;10484;48.736;9.332;2023-02-28T06:31:17;7.90;;;4.27;;
20649;SDS011;10484;48.736;9.332;2023-02-28T06:33:44;5.85;;;4.80;;
20649;SDS011;10484;48.736;9.332;2023-02-28T06:36:11;4.55;;;3.53;;
20649;SDS011;10484;48.736;9.332;2023-02-28T06:38:37;4.78;;;4.30;;
20649;SDS011;10484;48.736;9.332;2023-02-28T06:41:04;7.38;;;4.90;;
20649;SDS011;10484;48.736;9.332;2023-02-28T06:43:31;8.13;;;4.50;;
20649;SDS011;10484;48.736;9.332;2023-02-28T06:46:00;6.38;;;4.18;;
20649;SDS011;10484;48.736;9.332;2023-02-28T06:48:28;6.63;;;4.88;;
20649;SDS011;10484;48.736;9.332;2023-02-28T06:53:39;7.22;;;4.68;;
20649;SDS011;10484;48.736;9.332;2023-02-28T06:56:12;7.38;;;4.80;;
20649;SDS011;10484;48.736;9.332;2023-02-28T06:58:39;6.47;;;5.22;;
20649;SDS011;10484;48.736;9.332;2023-02-28T07:01:05;6.90;;;4.93;;
20649;SDS011;10484;48.736;9.332;2023-02-28T07:03:31;7.07;;;4.15;;
20649;SDS011;10484;48.736;9.332;2023-02-28T07:05:57;5.87;;;4.70;;
20649;SDS011;10484;48.736;9.332;2023-02-28T07:08:23;5.97;;;4.50;;
20649;SDS011;10484;48.736;9.332;2023-02-28T07:10:55;9.15;;;5.32;;
20649;SDS011;10484;48.736;9.332;2023-02-28T07:13:21;5.50;;;4.55;;
20649;SDS011;10484;48.736;9.332;2023-02-28T07:15:57;6.82;;;5.55;;
20649;SDS011;10484;48.736;9.332;2023-02-28T07:18:25;10.77;;;5.40;;
20649;SDS011;10484;48.736;9.332;2023-02-28T07:20:51;9.43;;;4.80;;
20649;SDS011;10484;48.736;9.332;2023-02-28T07:23:17;6.30;;;4.70;;
20649;SDS011;10484;48.736;9.332;2023-02-28T07:25:43;7.00;;;6.30;;
20649;SDS011;10484;48.736;9.332;2023-02-28T07:28:10;8.75;;;5.00;;
20649;SDS011;10484;48.736;9.332;2023-02-28T07:30:36;9.80;;;4.60;;
20649;SDS011;10484;48.736;9.332;2023-02-28T07:33:02;7.90;;;4.93;;
20649;SDS011;10484;48.736;9.332;2023-02-28T07:35:28;7.90;;;5.03;;
20649;SDS011;10484;48.736;9.332;2023-02-28T07:37:54;8.60;;;5.60;;
20649;SDS011;10484;48.736;9.332;2023-02-28T07:40:21;6.75;;;4.40;;
20649;SDS011;10484;48.736;9.332;2023-02-28T07:42:47;6.13;;;4.07;;
20649;SDS011;10484;48.736;9.332;2023-02-28T07:45:12;9.70;;;4.90;;
20649;SDS011;10484;48.736;9.332;2023-02-28T07:47:38;7.23;;;5.13;;
20649;SDS011;10484;48.736;9.332;2023-02-28T07:50:05;8.93;;;5.07;;
20649;SDS011;10484;48.736;9.332;2023-02-28T07:52:32;8.55;;;5.50;;
20649;SDS011;10484;48.736;9.332;2023-02-28T07:54:57;8.83;;;5.70;;
20649;SDS011;10484;48.736;9.332;2023-02-28T07:57:23;5.30;;;4.73;;
20649;SDS011;10484;48.736;9.332;2023-02-28T07:59:48;9.73;;;4.57;;
20649;SDS011;10484;48.736;9.332;2023-02-28T08:02:15;8.10;;;5.37;;
20649;SDS011;10484;48.736;9.332;2023-02-28T08:04:42;8.60;;;5.70;;
20649;SDS011;10484;48.736;9.332;2023-02-28T08:07:07;7.30;;;5.47;;
20649;SDS011;10484;48.736;9.332;2023-02-28T08:09:35;7.97;;;5.30;;
20649;SDS011;10484;48.736;9.332;2023-02-28T08:12:00;8.63;;;5.20;;
20649;SDS011;10484;48.736;9.332;2023-02-28T08:14:26;5.73;;;3.80;;
20649;SDS011;10484;48.736;9.332;2023-02-28T08:16:51;6.77;;;4.63;;
20649;SDS011;10484;48.736;9.332;2023-02-28T08:19:17;7.23;;;4.43;;
20649;SDS011;10484;48.736;9.332;2023-02-28T08:21:43;7.80;;;5.13;;
20649;SDS011;10484;48.736;9.332;2023-02-28T08:24:08;12.47;;;5.83;;
20649;SDS011;10484;48.736;9.332;2023-02-28T08:26:34;5.63;;;4.70;;
20649;SDS011;10484;48.736;9.332;2023-02-28T08:28:59;8.43;;;5.90;;
20649;SDS011;10484;48.736;9.332;2023-02-28T08:31:25;10.50;;;6.30;;
20649;SDS011;10484;48.736;9.332;2023-02-28T08:33:51;12.10;;;6.30;;
20649;SDS011;10484;48.736;9.332;2023-02-28T08:36:18;8.63;;;5.85;;
20649;SDS011;10484;48.736;9.332;2023-02-28T08:38:44;7.72;;;5.60;;
20649;SDS011;10484;48.736;9.332;2023-02-28T08:41:11;7.30;;;5.45;;
20649;SDS011;10484;48.736;9.332;2023-02-28T08:43:38;6.60;;;3.90;;
20649;SDS011;10484;48.736;9.332;2023-02-28T08:46:05;10.55;;;4.60;;
20649;SDS011;10484;48.736;9.332;2023-02-28T08:48:31;8.15;;;5.90;;
20649;SDS011;10484;48.736;9.332;2023-02-28T08:50:59;7.32;;;4.93;;
20649;SDS011;10484;48.736;9.332;2023-02-28T08:53:25;7.72;;;5.25;;
20649;SDS011;10484;48.736;9.332;2023-02-28T08:55:58;6.63;;;4.97;;
20649;SDS011;10484;48.736;9.332;2023-02-28T08:58:24;9.30;;;5.97;;
20649;SDS011;10484;48.736;9.332;2023-02-28T09:00:50;8.63;;;5.83;;
20649;SDS011;10484;48.736;9.332;2023-02-28T09:03:16;8.10;;;5.80;;
20649;SDS011;10484;48.736;9.332;2023-02-28T09:05:51;9.60;;;6.00;;
20649;SDS011;10484;48.736;9.332;2023-02-28T09:08:17;7.53;;;5.57;;
20649;SDS011;10484;48.736;9.332;2023-02-28T09:10:43;8.70;;;5.77;;
20649;SDS011;10484;48.736;9.332;2023-02-28T09:13:08;9.47;;;5.97;;
20649;SDS011;10484;48.736;9.332;2023-02-28T09:15:34;11.90;;;5.40;;
20649;SDS011;10484;48.736;9.332;2023-02-28T09:18:02;7.45;;;5.20;;
20649;SDS011;10484;48.736;9.332;2023-02-28T09:20:28;8.30;;;5.00;;
20649;SDS011;10484;48.736;9.332;2023-02-28T09:22:53;7.80;;;5.03;;
20649;SDS011;10484;48.736;9.332;2023-02-28T09:25:19;8.60;;;4.90;;
20649;SDS011;10484;48.736;9.332;2023-02-28T09:27:45;10.70;;;4.53;;
20649;SDS011;10484;48.736;9.332;2023-02-28T09:30:11;9.27;;;4.93;;
20649;SDS011;10484;48.736;9.332;2023-02-28T09:32:37;8.85;;;5.53;;
20649;SDS011;10484;48.736;9.332;2023-02-28T09:35:02;8.87;;;6.00;;
20649;SDS011;10484;48.736;9.332;2023-02-28T09:37:28;7.93;;;6.00;;
20649;SDS011;10484;48.736;9.332;2023-02-28T09:39:56;10.32;;;5.95;;
20649;SDS011;10484;48.736;9.332;2023-02-28T09:42:23;6.45;;;4.72;;
20649;SDS011;10484;48.736;9.332;2023-02-28T09:44:55;8.57;;;6.22;;
20649;SDS011;10484;48.736;9.332;2023-02-28T09:49:54;8.88;;;5.38;;
20649;SDS011;10484;48.736;9.332;2023-02-28T09:52:24;6.57;;;5.32;;
20649;SDS011;10484;48.736;9.332;2023-02-28T09:54:59;12.85;;;5.95;;
20649;SDS011;10484;48.736;9.332;2023-02-28T09:57:44;8.35;;;5.45;;
20649;SDS011;10484;48.736;9.332;2023-02-28T10:05:15;8.77;;;5.65;;
20649;SDS011;10484;48.736;9.332;2023-02-28T10:07:56;9.73;;;5.68;;
20649;SDS011;10484;48.736;9.332;2023-02-28T10:13:06;7.95;;;5.03;;
20649;SDS011;10484;48.736;9.332;2023-02-28T10:15:40;10.60;;;7.80;;
20649;SDS011;10484;48.736;9.332;2023-02-28T10:18:10;8.07;;;6.20;;
20649;SDS011;10484;48.736;9.332;2023-02-28T10:20:39;9.85;;;6.28;;
20649;SDS011;10484;48.736;9.332;2023-02-28T10:23:23;10.20;;;6.60;;
20649;SDS011;10484;48.736;9.332;2023-02-28T10:26:13;8.45;;;5.65;;
20649;SDS011;10484;48.736;9.332;2023-02-28T10:28:43;11.90;;;6.25;;
20649;SDS011;10484;48.736;9.332;2023-02-28T10:31:11;9.07;;;5.03;;
20649;SDS011;10484;48.736;9.332;2023-02-28T10:33:42;6.20;;;5.10;;
20649;SDS011;10484;48.736;9.332;2023-02-28T10:36:12;7.68;;;5.03;;
20649;SDS011;10484;48.736;9.332;2023-02-28T10:38:41;8.15;;;4.68;;
20649;SDS011;10484;48.736;9.332;2023-02-28T10:41:08;8.85;;;5.55;;
20649;SDS011;10484;48.736;9.332;2023-02-28T10:43:36;9.43;;;5.32;;
20649;SDS011;10484;48.736;9.332;2023-02-28T10:46:24;9.40;;;6.63;;
20649;SDS011;10484;48.736;9.332;2023-02-28T10:49:02;8.25;;;5.72;;
20649;SDS011;10484;48.736;9.332;2023-02-28T10:51:37;5.65;;;4.70;;
20649;SDS011;10484;48.736;9.332;2023-02-28T10:54:04;11.00;;;7.43;;
20649;SDS011;10484;48.736;9.332;2023-02-28T10:56:30;11.65;;;6.65;;
20649;SDS011;10484;48.736;9.332;2023-02-28T11:07:18;9.52;;;6.00;;
20649;SDS011;10484;48.736;9.332;2023-02-28T11:09:48;11.90;;;6.88;;
20649;SDS011;10484;48.736;9.332;2023-02-28T11:12:20;10.43;;;6.85;;
20649;SDS011;10484;48.736;9.332;2023-02-28T11:15:07;14.05;;;6.82;;
20649;SDS011;10484;48.736;9.332;2023-02-28T11:18:01;9.45;;;5.65;;
20649;SDS011;10484;48.736;9.332;2023-02-28T11:20:40;9.30;;;6.50;;
20649;SDS011;10484;48.736;9.332;2023-02-28T11:23:05;7.00;;;5.70;;
20649;SDS011;10484;48.736;9.332;2023-02-28T11:25:38;9.85;;;6.75;;
20649;SDS011;10484;48.736;9.332;2023-02-28T11:28:05;7.90;;;5.15;;
20649;SDS011;10484;48.736;9.332;2023-02-28T11:30:49;8.60;;;6.40;;
20649;SDS011;10484;48.736;9.332;2023-02-28T11:33:50;10.65;;;4.30;;
20649;SDS011;10484;48.736;9.332;2023-02-28T11:38:45;10.13;;;6.22;;
20649;SDS011;10484;48.736;9.332;2023-02-28T11:41:15;11.52;;;6.70;;
20649;SDS011;10484;48.736;9.332;2023-02-28T11:44:04;6.63;;;5.03;;
20649;SDS011;10484;48.736;9.332;2023-02-28T11:46:51;8.27;;;5.82;;
20649;SDS011;10484;48.736;9.332;2023-02-28T12:02:56;8.75;;;6.18;;
20649;SDS011;10484;48.736;9.332;2023-02-28T12:05:44;8.30;;;4.03;;
20649;SDS011;10484;48.736;9.332;2023-02-28T12:08:23;7.72;;;5.70;;
20649;SDS011;10484;48.736;9.332;2023-02-28T12:11:12;8.65;;;5.90;;
20649;SDS011;10484;48.736;9.332;2023-02-28T12:14:25;8.95;;;6.07;;
20649;SDS011;10484;48.736;9.332;2023-02-28T12:27:46;8.13;;;6.13;;
20649;SDS011;10484;48.736;9.332;2023-02-28T12:30:28;14.18;;;6.50;;
20649;SDS011;10484;48.736;9.332;2023-02-28T12:33:04;10.00;;;5.25;;
20649;SDS011;10484;48.736;9.332;2023-02-28T12:35:46;10.85;;;6.43;;
20649;SDS011;10484;48.736;9.332;2023-02-28T12:38:17;9.60;;;6.65;;
20649;SDS011;10484;48.736;9.332;2023-02-28T12:41:09;8.85;;;6.65;;
20649;SDS011;10484;48.736;9.332;2023-02-28T12:43:50;7.88;;;6.47;;
20649;SDS011;10484;48.736;9.332;2023-02-28T12:46:24;9.90;;;6.50;;
20649;SDS011;10484;48.736;9.332;2023-02-28T12:48:57;4.80;;;3.60;;
20649;SDS011;10484;48.736;9.332;2023-02-28T12:51:26;8.65;;;5.72;;
20649;SDS011;10484;48.736;9.332;2023-02-28T12:56:54;9.82;;;7.38;;
20649;SDS011;10484;48.736;9.332;2023-02-28T12:59:42;7.20;;;6.05;;
20649;SDS011;10484;48.736;9.332;2023-02-28T13:10:52;11.10;;;6.03;;
20649;SDS011;10484;48.736;9.332;2023-02-28T13:13:24;9.93;;;6.55;;
20649;SDS011;10484;48.736;9.332;2023-02-28T13:16:10;10.55;;;6.90;;
20649;SDS011;10484;48.736;9.332;2023-02-28T13:18:39;8.35;;;6.40;;
20649;SDS011;10484;48.736;9.332;2023-02-28T13:21:10;8.75;;;6.80;;
20649;SDS011;10484;48.736;9.332;2023-02-28T13:34:32;7.70;;;5.53;;
20649;SDS011;10484;48.736;9.332;2023-02-28T13:47:29;9.20;;;5.93;;
20649;SDS011;10484;48.736;9.332;2023-02-28T13:50:20;8.13;;;6.03;;
20649;SDS011;10484;48.736;9.332;2023-02-28T13:55:53;6.60;;;5.17;;
20649;SDS011;10484;48.736;9.332;2023-02-28T14:01:39;9.00;;;6.45;;
20649;SDS011;10484;48.736;9.332;2023-02-28T14:05:18;11.67;;;7.13;;
20649;SDS011;10484;48.736;9.332;2023-02-28T14:07:44;7.35;;;5.40;;
20649;SDS011;10484;48.736;9.332;2023-02-28T14:10:24;7.90;;;6.57;;
20649;SDS011;10484;48.736;9.332;2023-02-28T14:13:01;7.60;;;5.70;;
20649;SDS011;10484;48.736;9.332;2023-02-28T14:20:52;8.13;;;6.47;;
20649;SDS011;10484;48.736;9.332;2023-02-28T14:23:34;6.18;;;5.10;;
20649;SDS011;10484;48.736;9.332;2023-02-28T14:26:11;7.68;;;5.38;;
20649;SDS011;10484;48.736;9.332;2023-02-28T14:37:10;11.43;;;6.20;;
20649;SDS011;10484;48.736;9.332;2023-02-28T14:39:43;8.10;;;5.90;;
20649;SDS011;10484;48.736;9.332;2023-02-28T14:42:29;7.93;;;6.25;;
20649;SDS011;10484;48.736;9.332;2023-02-28T14:44:59;7.87;;;6.77;;
20649;SDS011;10484;48.736;9.332;2023-02-28T14:47:28;7.70;;;6.17;;
20649;SDS011;10484;48.736;9.332;2023-02-28T14:49:58;8.27;;;5.57;;
20649;SDS011;10484;48.736;9.332;2023-02-28T14:52:29;9.68;;;6.57;;
20649;SDS011;10484;48.736;9.332;2023-02-28T14:54:58;12.00;;;7.55;;
20649;SDS011;10484;48.736;9.332;2023-02-28T14:57:39;9.80;;;6.60;;
20649;SDS011;10484;48.736;9.332;2023-02-28T15:02:38;6.80;;;5.80;;
20649;SDS011;10484;48.736;9.332;2023-02-28T15:07:45;8.93;;;6.37;;
20649;SDS011;10484;48.736;9.332;2023-02-28T15:10:20;7.00;;;5.65;;
20649;SDS011;10484;48.736;9.332;2023-02-28T15:15:21;7.77;;;6.17;;
20649;SDS011;10484;48.736;9.332;2023-02-28T15:17:52;10.53;;;6.00;;
20649;SDS011;10484;48.736;9.332;2023-02-28T15:20:21;6.93;;;5.30;;
20649;SDS011;10484;48.736;9.332;2023-02-28T15:22:49;9.57;;;5.78;;
20649;SDS011;10484;48.736;9.332;2023-02-28T15:25:19;6.95;;;5.72;;
20649;SDS011;10484;48.736;9.332;2023-02-28T15:27:50;8.75;;;6.50;;
20649;SDS011;10484;48.736;9.332;2023-02-28T15:32:45;6.95;;;4.97;;
20649;SDS011;10484;48.736;9.332;2023-02-28T15:35:47;6.73;;;5.40;;
20649;SDS011;10484;48.736;9.332;2023-02-28T15:38:23;8.67;;;6.60;;
20649;SDS011;10484;48.736;9.332;2023-02-28T15:40:54;7.65;;;6.70;;
20649;SDS011;10484;48.736;9.332;2023-02-28T15:45:56;7.90;;;5.65;;
20649;SDS011;10484;48.736;9.332;2023-02-28T15:48:45;7.32;;;6.63;;
20649;SDS011;10484;48.736;9.332;2023-02-28T15:51:25;9.47;;;6.97;;
20649;SDS011;10484;48.736;9.332;2023-02-28T15:53:58;6.90;;;5.57;;
20649;SDS011;10484;48.736;9.332;2023-02-28T15:56:27;8.63;;;6.23;;
20649;SDS011;10484;48.736;9.332;2023-02-28T15:59:01;10.57;;;7.00;;
20649;SDS011;10484;48.736;9.332;2023-02-28T16:01:31;10.90;;;6.57;;
20649;SDS011;10484;48.736;9.332;2023-02-28T16:04:06;10.27;;;6.85;;
20649;SDS011;10484;48.736;9.332;2023-02-28T16:06:40;11.50;;;6.73;;
20649;SDS011;10484;48.736;9.332;2023-02-28T16:09:11;7.32;;;5.75;;
20649;SDS011;10484;48.736;9.332;2023-02-28T16:11:39;8.77;;;6.83;;
20649;SDS011;10484;48.736;9.332;2023-02-28T16:14:17;10.15;;;7.50;;
20649;SDS011;10484;48.736;9.332;2023-02-28T16:16:46;6.53;;;5.78;;
20649;SDS011;10484;48.736;9.332;2023-02-28T16:19:13;7.55;;;6.15;;
20649;SDS011;10484;48.736;9.332;2023-02-28T16:21:39;7.90;;;7.03;;
20649;SDS011;10484;48.736;9.332;2023-02-28T16:24:05;9.37;;;6.53;;
20649;SDS011;10484;48.736;9.332;2023-02-28T16:26:31;10.27;;;7.25;;
20649;SDS011;10484;48.736;9.332;2023-02-28T16:28:59;10.02;;;6.65;;
20649;SDS011;10484;48.736;9.332;2023-02-28T16:31:26;8.48;;;6.93;;
20649;SDS011;10484;48.736;9.332;2023-02-28T16:33:52;8.13;;;6.13;;
20649;SDS011;10484;48.736;9.332;2023-02-28T16:36:20;7.70;;;5.53;;
20649;SDS011;10484;48.736;9.332;2023-02-28T16:38:47;9.80;;;6.60;;
20649;SDS011;10484;48.736;9.332;2023-02-28T16:41:14;6.67;;;6.00;;
20649;SDS011;10484;48.736;9.332;2023-02-28T16:43:44;9.57;;;6.70;;
20649;SDS011;10484;48.736;9.332;2023-02-28T16:46:12;7.85;;;5.47;;
20649;SDS011;10484;48.736;9.332;2023-02-28T16:48:38;10.38;;;6.72;;
20649;SDS011;10484;48.736;9.332;2023-02-28T16:51:05;13.43;;;7.05;;
20649;SDS011;10484;48.736;9.332;2023-02-28T16:53:33;17.48;;;10.63;;
20649;SDS011;10484;48.736;9.332;2023-02-28T16:56:00;20.73;;;14.17;;
20649;SDS011;10484;48.736;9.332;2023-02-28T16:58:27;10.75;;;8.50;;
20649;SDS011;10484;48.736;9.332;2023-02-28T17:00:52;34.77;;;20.00;;
20649;SDS011;10484;48.736;9.332;2023-02-28T17:03:25;16.10;;;10.20;;
20649;SDS011;10484;48.736;9.332;2023-02-28T17:05:52;10.95;;;7.75;;
20649;SDS011;10484;48.736;9.332;2023-02-28T17:08:18;8.43;;;6.20;;
20649;SDS011;10484;48.736;9.332;2023-02-28T17:10:43;10.13;;;7.30;;
20649;SDS011;10484;48.736;9.332;2023-02-28T17:13:09;10.63;;;7.13;;
20649;SDS011;10484;48.736;9.332;2023-02-28T17:15:35;8.50;;;7.13;;
20649;SDS011;10484;48.736;9.332;2023-02-28T17:18:02;9.43;;;7.57;;
20649;SDS011;10484;48.736;9.332;2023-02-28T17:20:27;12.23;;;7.10;;
20649;SDS011;10484;48.736;9.332;2023-02-28T17:22:54;10.38;;;6.43;;
20649;SDS011;10484;48.736;9.332;2023-02-28T17:25:21;10.02;;;6.75;;
20649;SDS011;10484;48.736;9.332;2023-02-28T17:27:48;8.68;;;6.85;;
20649;SDS011;10484;48.736;9.332;2023-02-28T17:30:20;10.02;;;7.05;;
20649;SDS011;10484;48.736;9.332;2023-02-28T17:32:52;9.75;;;7.63;;
20649;SDS011;10484;48.736;9.332;2023-02-28T17:35:18;8.77;;;7.25;;
20649;SDS011;10484;48.736;9.332;2023-02-28T17:37:44;9.82;;;6.50;;
20649;SDS011;10484;48.736;9.332;2023-02-28T17:40:17;7.93;;;6.50;;
20649;SDS011;10484;48.736;9.332;2023-02-28T17:42:47;9.85;;;7.30;;